createdAt,value
2018-11-10T00:00:16.952Z,29.00
2018-11-10T00:02:46.432Z,29.30
2018-11-10T00:05:15.946Z,27.98
2018-11-10T00:07:45.269Z,27.77
2018-11-10T00:10:14.542Z,27.32
2018-11-10T00:12:43.816Z,26.60
2018-11-10T00:15:13.913Z,27.48
2018-11-10T00:17:43.132Z,25.97
2018-11-10T00:20:12.148Z,26.37
2018-11-10T00:22:42.128Z,26.07
2018-11-10T00:25:12.545Z,26.25
2018-11-10T00:27:42.525Z,24.80
2018-11-10T00:30:13.713Z,23.60
2018-11-10T00:32:43.536Z,24.05
2018-11-10T00:35:12.861Z,24.47
2018-11-10T00:37:42.057Z,24.23
2018-11-10T00:40:14.604Z,25.17
2018-11-10T00:42:44.188Z,24.67
2018-11-10T00:45:13.440Z,26.12
2018-11-10T00:47:42.740Z,25.20
2018-11-10T00:50:11.921Z,25.00
2018-11-10T00:52:41.029Z,24.70
2018-11-10T00:55:10.356Z,23.45
2018-11-10T00:57:39.628Z,25.50
2018-11-10T01:00:10.525Z,24.20
2018-11-10T01:02:39.868Z,24.27
2018-11-10T01:05:09.069Z,24.25
2018-11-10T01:07:38.365Z,24.87
2018-11-10T01:10:09.149Z,23.38
2018-11-10T01:12:38.192Z,24.65
2018-11-10T01:15:09.284Z,23.83
2018-11-10T01:17:38.637Z,23.57
2018-11-10T01:20:08.665Z,23.07
2018-11-10T01:22:37.932Z,23.25
2018-11-10T01:25:08.326Z,23.73
2018-11-10T01:27:37.595Z,23.02
2018-11-10T01:30:09.960Z,21.75
2018-11-10T01:32:39.039Z,23.18
2018-11-10T01:35:08.346Z,21.85
2018-11-10T01:37:37.420Z,21.48
2018-11-10T01:40:07.770Z,21.30
2018-11-10T01:42:36.945Z,21.23
2018-11-10T01:45:08.124Z,20.33
2018-11-10T01:47:37.421Z,21.80
2018-11-10T01:50:07.388Z,21.70
2018-11-10T01:52:36.521Z,20.97
2018-11-10T01:55:05.785Z,22.32
2018-11-10T01:57:34.925Z,21.05
2018-11-10T02:00:04.080Z,22.00
2018-11-10T02:02:33.184Z,21.52
2018-11-10T02:05:02.297Z,21.00
2018-11-10T02:07:31.570Z,21.55
2018-11-10T02:10:00.689Z,21.15
2018-11-10T02:12:29.860Z,19.50
2018-11-10T02:14:59.084Z,20.02
2018-11-10T02:17:28.285Z,19.57
2018-11-10T02:19:57.348Z,19.65
2018-11-10T02:22:26.672Z,20.10
2018-11-10T02:24:55.856Z,19.17
2018-11-10T02:27:25.519Z,18.65
2018-11-10T02:29:55.624Z,18.52
2018-11-10T02:32:24.804Z,19.27
2018-11-10T02:34:53.788Z,18.57
2018-11-10T02:37:22.860Z,19.15
2018-11-10T02:39:51.877Z,19.17
2018-11-10T02:42:20.945Z,20.27
2018-11-10T02:44:50.082Z,19.27
2018-11-10T02:47:19.041Z,20.48
2018-11-10T02:49:48.105Z,20.82
2018-11-10T02:52:17.150Z,20.40
2018-11-10T02:54:46.208Z,19.45
2018-11-10T02:57:15.237Z,19.07
2018-11-10T02:59:44.328Z,18.73
2018-11-10T03:02:13.365Z,18.75
2018-11-10T03:04:42.521Z,17.60
2018-11-10T03:07:11.585Z,18.00
2018-11-10T03:09:41.180Z,17.73
2018-11-10T03:12:10.440Z,17.85
2018-11-10T03:14:39.597Z,17.45
2018-11-10T03:17:08.720Z,17.55
2018-11-10T03:19:37.781Z,17.23
2018-11-10T03:22:07.104Z,16.87
2018-11-10T03:24:36.304Z,16.95
2018-11-10T03:27:05.576Z,16.97
2018-11-10T03:29:34.821Z,17.23
2018-11-10T03:32:03.972Z,16.07
2018-11-10T03:34:33.097Z,16.45
2018-11-10T03:37:02.189Z,17.92
2018-11-10T03:39:31.361Z,17.17
2018-11-10T03:42:00.449Z,17.62
2018-11-10T03:44:29.524Z,18.15
2018-11-10T03:46:58.672Z,18.23
2018-11-10T03:49:27.764Z,16.65
2018-11-10T03:51:56.841Z,15.70
2018-11-10T03:54:25.960Z,17.05
2018-11-10T03:56:55.024Z,17.65
2018-11-10T03:59:24.157Z,17.62
2018-11-10T04:01:53.216Z,16.93
2018-11-10T04:04:22.448Z,17.15
2018-11-10T04:06:51.510Z,17.50
2018-11-10T04:09:20.738Z,18.30
2018-11-10T04:11:50.042Z,16.77
2018-11-10T04:14:19.232Z,16.23
2018-11-10T04:16:48.329Z,16.80
2018-11-10T04:19:17.388Z,16.60
2018-11-10T04:21:46.617Z,16.62
2018-11-10T04:24:15.688Z,16.93
2018-11-10T04:26:44.805Z,18.40
2018-11-10T04:29:13.908Z,17.65
2018-11-10T04:31:43.072Z,17.30
2018-11-10T04:34:12.193Z,16.45
2018-11-10T04:36:41.197Z,17.83
2018-11-10T04:39:10.285Z,16.80
2018-11-10T04:41:39.448Z,16.50
2018-11-10T04:44:09.593Z,17.20
2018-11-10T04:46:38.972Z,16.60
2018-11-10T04:49:08.092Z,16.62
2018-11-10T04:51:37.301Z,17.00
2018-11-10T04:54:06.621Z,16.23
2018-11-10T04:56:35.806Z,16.15
2018-11-10T04:59:05.065Z,17.45
2018-11-10T05:01:34.340Z,18.50
2018-11-10T05:04:03.579Z,18.07
2018-11-10T05:06:32.784Z,18.98
2018-11-10T05:09:01.997Z,18.62
2018-11-10T05:11:31.175Z,18.23
2018-11-10T05:14:00.180Z,18.07
2018-11-10T05:16:29.237Z,19.07
2018-11-10T05:18:58.262Z,18.05
2018-11-10T05:21:27.141Z,18.02
2018-11-10T05:23:56.449Z,16.82
2018-11-10T05:26:25.440Z,16.80
2018-11-10T05:28:54.520Z,17.55
2018-11-10T05:31:23.633Z,17.30
2018-11-10T05:33:52.709Z,18.87
2018-11-10T05:36:21.725Z,17.75
2018-11-10T05:38:50.824Z,17.20
2018-11-10T05:41:19.885Z,17.75
2018-11-10T05:43:49.122Z,17.12
2018-11-10T05:46:18.381Z,15.53
2018-11-10T05:48:47.501Z,15.97
2018-11-10T05:51:16.677Z,16.75
2018-11-10T05:53:45.797Z,16.65
2018-11-10T05:56:14.897Z,17.77
2018-11-10T05:58:43.852Z,16.93
2018-11-10T06:01:12.977Z,18.02
2018-11-10T06:03:42.051Z,16.63
2018-11-10T06:06:11.168Z,16.42
2018-11-10T06:08:40.163Z,16.00
2018-11-10T06:11:09.129Z,16.10
2018-11-10T06:13:38.149Z,16.32
2018-11-10T06:16:07.283Z,16.15
2018-11-10T06:18:36.455Z,16.30
2018-11-10T06:21:05.767Z,17.45
2018-11-10T06:23:34.909Z,16.70
2018-11-10T06:26:04.239Z,16.73
2018-11-10T06:28:33.418Z,15.20
2018-11-10T06:31:02.524Z,14.50
2018-11-10T06:33:31.741Z,13.60
2018-11-10T06:36:00.903Z,14.35
2018-11-10T06:38:30.120Z,13.95
2018-11-10T06:40:59.392Z,14.68
2018-11-10T06:43:28.493Z,14.25
2018-11-10T06:45:57.647Z,13.88
2018-11-10T06:48:28.249Z,14.73
2018-11-10T06:50:57.445Z,14.65
2018-11-10T06:53:26.533Z,13.88
2018-11-10T06:55:56.166Z,14.33
2018-11-10T06:58:27.334Z,14.40
2018-11-10T07:00:56.485Z,14.10
2018-11-10T07:03:25.586Z,13.83
2018-11-10T07:05:54.641Z,14.70
2018-11-10T07:08:23.765Z,14.28
2018-11-10T07:10:52.831Z,14.23
2018-11-10T07:13:21.956Z,15.08
2018-11-10T07:15:51.058Z,14.18
2018-11-10T07:18:20.013Z,14.65
2018-11-10T07:20:49.040Z,14.45
2018-11-10T07:23:18.006Z,13.88
2018-11-10T07:25:47.129Z,14.40
2018-11-10T07:28:16.217Z,14.38
2018-11-10T07:30:45.284Z,14.83
2018-11-10T07:33:14.305Z,13.93
2018-11-10T07:35:43.513Z,14.00
2018-11-10T07:38:12.605Z,14.83
2018-11-10T07:40:41.589Z,14.73
2018-11-10T07:43:10.878Z,13.98
2018-11-10T07:45:40.091Z,13.88
2018-11-10T07:48:09.266Z,13.78
2018-11-10T07:50:38.493Z,14.07
2018-11-10T07:53:07.756Z,14.28
2018-11-10T07:55:36.992Z,13.93
2018-11-10T07:58:06.796Z,14.10
2018-11-10T08:00:35.860Z,12.20
2018-11-10T08:03:05.189Z,13.68
2018-11-10T08:05:34.252Z,13.40
2018-11-10T08:08:03.485Z,13.03
2018-11-10T08:10:32.593Z,12.93
2018-11-10T08:13:01.749Z,13.10
2018-11-10T08:15:30.975Z,12.88
2018-11-10T08:18:00.137Z,12.78
2018-11-10T08:20:29.411Z,13.85
2018-11-10T08:22:58.541Z,14.53
2018-11-10T08:25:27.657Z,14.13
2018-11-10T08:27:56.752Z,13.10
2018-11-10T08:30:25.920Z,12.93
2018-11-10T08:32:55.049Z,12.75
2018-11-10T08:35:27.714Z,12.65
2018-11-10T08:37:56.921Z,13.60
2018-11-10T08:40:26.000Z,13.50
2018-11-10T08:42:55.117Z,13.40
2018-11-10T08:45:24.421Z,13.58
2018-11-10T08:47:53.580Z,13.70
2018-11-10T08:50:22.813Z,13.68
2018-11-10T08:52:51.887Z,13.78
2018-11-10T08:55:21.097Z,12.97
2018-11-10T08:57:50.306Z,13.40
2018-11-10T09:00:19.465Z,13.45
2018-11-10T09:02:48.597Z,13.53
2018-11-10T09:05:17.657Z,13.38
2018-11-10T09:07:46.789Z,13.48
2018-11-10T09:10:15.749Z,12.45
2018-11-10T09:12:44.869Z,13.28
2018-11-10T09:15:15.281Z,13.32
2018-11-10T09:17:44.671Z,12.47
2018-11-10T09:20:15.781Z,11.60
2018-11-10T09:22:45.236Z,12.43
2018-11-10T09:25:15.706Z,12.58
2018-11-10T09:27:44.865Z,12.18
2018-11-10T09:30:15.221Z,11.60
2018-11-10T09:32:44.486Z,11.97
2018-11-10T09:35:24.017Z,11.78
2018-11-10T09:37:53.120Z,11.73
2018-11-10T09:40:22.338Z,11.97
2018-11-10T09:42:51.386Z,11.85
2018-11-10T09:45:20.726Z,11.93
2018-11-10T09:47:49.780Z,12.30
2018-11-10T09:50:21.606Z,12.88
2018-11-10T09:52:51.053Z,12.03
2018-11-10T09:55:20.273Z,11.85
2018-11-10T09:57:49.550Z,12.03
2018-11-10T10:00:19.841Z,11.73
2018-11-10T10:02:49.464Z,11.63
2018-11-10T10:05:18.185Z,11.93
2018-11-10T10:07:47.363Z,11.63
2018-11-10T10:10:17.569Z,11.60
2018-11-10T10:12:46.900Z,10.87
2018-11-10T10:15:17.177Z,11.45
2018-11-10T10:17:46.597Z,11.20
2018-11-10T10:20:17.337Z,11.15
2018-11-10T10:22:47.428Z,10.88
2018-11-10T10:25:17.366Z,11.70
2018-11-10T10:27:47.285Z,11.30
2018-11-10T10:30:18.100Z,11.55
2018-11-10T10:32:48.019Z,11.20
2018-11-10T10:35:17.327Z,10.95
2018-11-10T10:37:47.333Z,11.35
2018-11-10T10:40:16.737Z,10.75
2018-11-10T10:42:46.268Z,10.35
2018-11-10T10:45:16.929Z,11.08
2018-11-10T10:47:46.172Z,10.25
2018-11-10T10:50:18.041Z,11.45
2018-11-10T10:52:47.257Z,11.35
2018-11-10T10:55:17.457Z,11.12
2018-11-10T10:57:47.561Z,11.27
2018-11-10T11:00:21.887Z,11.53
2018-11-10T11:02:56.166Z,11.63
2018-11-10T11:05:30.368Z,12.25
2018-11-10T11:07:59.542Z,11.33
2018-11-10T11:10:28.765Z,11.48
2018-11-10T11:12:57.959Z,11.97
2018-11-10T11:15:27.161Z,11.65
2018-11-10T11:17:56.246Z,11.38
2018-11-10T11:20:25.321Z,11.65
2018-11-10T11:22:54.540Z,13.97
2018-11-10T11:25:23.600Z,11.68
2018-11-10T11:27:52.640Z,11.75
2018-11-10T11:30:21.616Z,11.57
2018-11-10T11:32:50.691Z,12.07
2018-11-10T11:35:19.797Z,11.22
2018-11-10T11:37:48.783Z,11.88
2018-11-10T11:40:17.905Z,11.75
2018-11-10T11:42:47.008Z,12.00
2018-11-10T11:45:15.985Z,12.25
2018-11-10T11:47:45.081Z,11.57
2018-11-10T11:50:15.357Z,12.40
2018-11-10T11:52:45.060Z,13.03
2018-11-10T11:55:17.896Z,12.88
2018-11-10T11:57:47.175Z,12.68
2018-11-10T12:00:17.569Z,14.13
2018-11-10T12:02:47.197Z,13.53
2018-11-10T12:05:17.993Z,13.53
2018-11-10T12:07:47.412Z,12.77
2018-11-10T12:10:17.113Z,12.95
2018-11-10T12:12:46.480Z,15.35
2018-11-10T12:15:16.584Z,14.28
2018-11-10T12:17:45.697Z,14.50
2018-11-10T12:20:15.629Z,14.20
2018-11-10T12:22:44.801Z,14.35
2018-11-10T12:25:14.632Z,14.15
2018-11-10T12:27:44.421Z,15.48
2018-11-10T12:30:13.797Z,15.15
2018-11-10T12:32:42.925Z,14.40
2018-11-10T12:35:13.178Z,13.68
2018-11-10T12:37:47.045Z,15.28
2018-11-10T12:40:16.233Z,16.23
2018-11-10T12:44:44.945Z,14.38
2018-11-10T12:47:14.038Z,14.75
2018-11-10T12:49:43.228Z,15.45
2018-11-10T12:52:12.358Z,15.40
2018-11-10T12:54:41.398Z,14.10
2018-11-10T12:57:10.533Z,15.23
2018-11-10T12:59:39.717Z,14.28
2018-11-10T13:02:08.788Z,14.65
2018-11-10T13:04:37.810Z,14.58
2018-11-10T13:07:06.889Z,14.35
2018-11-10T13:09:35.973Z,14.23
2018-11-10T13:12:05.167Z,14.03
2018-11-10T13:14:34.449Z,14.43
2018-11-10T13:17:03.729Z,14.65
2018-11-10T13:19:32.900Z,13.58
2018-11-10T13:22:02.066Z,14.65
2018-11-10T13:24:31.380Z,14.85
2018-11-10T13:27:01.380Z,14.75
2018-11-10T13:29:30.492Z,14.78
2018-11-10T13:31:59.725Z,14.80
2018-11-10T13:34:28.974Z,15.18
2018-11-10T13:36:58.197Z,15.30
2018-11-10T13:39:27.257Z,15.88
2018-11-10T13:41:56.381Z,16.45
2018-11-10T13:44:25.591Z,15.88
2018-11-10T13:46:54.672Z,15.95
2018-11-10T13:49:23.753Z,15.60
2018-11-10T13:51:53.333Z,14.90
2018-11-10T13:54:22.129Z,15.50
2018-11-10T13:57:01.118Z,14.73
2018-11-10T13:59:30.367Z,14.60
2018-11-10T14:01:59.403Z,15.85
2018-11-10T14:04:28.656Z,15.00
2018-11-10T14:06:57.889Z,15.10
2018-11-10T14:09:27.076Z,14.35
2018-11-10T14:11:56.285Z,14.75
2018-11-10T14:14:25.469Z,14.58
2018-11-10T14:16:54.648Z,14.45
2018-11-10T14:19:24.788Z,14.43
2018-11-10T14:21:54.075Z,15.63
2018-11-10T14:24:24.560Z,17.12
2018-11-10T14:26:53.725Z,16.35
2018-11-10T14:29:23.090Z,19.00
2018-11-10T14:31:52.220Z,24.20
2018-11-10T14:34:21.317Z,24.50
2018-11-10T14:36:50.413Z,26.30
2018-11-10T14:39:19.469Z,25.80
2018-11-10T14:41:48.588Z,25.80
2018-11-10T14:44:17.655Z,25.75
2018-11-10T14:46:46.672Z,27.48
2018-11-10T14:49:15.857Z,26.40
2018-11-10T14:51:48.073Z,26.10
2018-11-10T14:54:24.051Z,26.45
2018-11-10T14:56:59.289Z,26.30
2018-11-10T14:59:28.157Z,27.80
2018-11-10T15:01:57.272Z,26.42
2018-11-10T15:04:26.312Z,27.32
2018-11-10T15:06:55.276Z,25.82
2018-11-10T15:09:24.152Z,26.20
2018-11-10T15:11:53.194Z,26.67
2018-11-10T15:14:21.837Z,26.75
2018-11-10T15:16:50.655Z,27.90
2018-11-10T15:19:19.477Z,26.77
2018-11-10T15:21:48.593Z,27.42
2018-11-10T15:24:19.107Z,26.93
2018-11-10T15:26:48.097Z,27.02
2018-11-10T15:29:17.629Z,26.87
2018-11-10T15:31:48.425Z,27.40
2018-11-10T15:34:17.933Z,29.23
2018-11-10T15:36:47.385Z,29.23
2018-11-10T15:39:16.660Z,29.87
2018-11-10T15:41:46.404Z,29.98
2018-11-10T15:44:16.518Z,30.27
2018-11-10T15:46:46.398Z,30.30
2018-11-10T15:49:16.666Z,33.05
2018-11-10T15:51:47.896Z,32.10
2018-11-10T15:54:18.709Z,34.63
2018-11-10T15:56:48.515Z,34.85
2018-11-10T15:59:18.002Z,34.10
2018-11-10T16:01:47.613Z,34.38
2018-11-10T16:04:16.753Z,34.15
2018-11-10T16:06:45.924Z,33.83
2018-11-10T16:09:15.054Z,33.80
2018-11-10T16:11:47.761Z,35.10
2018-11-10T16:14:17.281Z,34.35
2018-11-10T16:16:46.785Z,34.63
2018-11-10T16:19:16.385Z,34.60
2018-11-10T16:21:46.393Z,34.40
2018-11-10T16:24:15.994Z,33.63
2018-11-10T16:26:45.196Z,32.38
2018-11-10T16:29:14.840Z,32.98
2018-11-10T16:31:44.597Z,33.35
2018-11-10T16:34:14.469Z,33.28
2018-11-10T16:36:44.024Z,33.00
2018-11-10T16:39:13.340Z,32.03
2018-11-10T16:41:42.994Z,32.50
2018-11-10T16:44:12.735Z,30.68
2018-11-10T16:46:42.454Z,29.85
2018-11-10T16:49:11.449Z,30.10
2018-11-10T16:51:41.529Z,29.12
2018-11-10T16:54:11.280Z,28.35
2018-11-10T16:56:40.705Z,27.42
2018-11-10T16:59:10.341Z,27.52
2018-11-10T17:01:39.802Z,27.22
2018-11-10T17:04:09.388Z,27.63
2018-11-10T17:06:38.597Z,27.53
2018-11-10T17:09:10.859Z,27.95
2018-11-10T17:11:40.683Z,26.75
2018-11-10T17:14:11.114Z,26.48
2018-11-10T17:16:41.197Z,25.23
2018-11-10T17:19:11.358Z,25.27
2018-11-10T17:21:42.594Z,24.85
2018-11-10T17:24:12.386Z,26.00
2018-11-10T17:26:41.995Z,25.23
2018-11-10T17:29:11.459Z,25.17
2018-11-10T17:31:41.394Z,24.23
2018-11-10T17:34:11.325Z,23.83
2018-11-10T17:36:41.229Z,24.20
2018-11-10T17:39:11.310Z,24.37
2018-11-10T17:41:41.197Z,24.77
2018-11-10T17:44:10.934Z,23.47
2018-11-10T17:46:40.535Z,22.80
2018-11-10T17:49:10.237Z,22.40
2018-11-10T17:51:39.957Z,22.80
2018-11-10T17:54:09.670Z,23.00
2018-11-10T17:56:39.461Z,21.80
2018-11-10T17:59:08.889Z,23.07
2018-11-10T18:01:38.047Z,22.95
2018-11-10T18:04:07.702Z,22.02
2018-11-10T18:06:36.921Z,21.87
2018-11-10T18:09:08.165Z,21.07
2018-11-10T18:11:37.540Z,20.43
2018-11-10T18:14:07.014Z,20.57
2018-11-10T18:16:36.188Z,21.07
2018-11-10T18:19:06.607Z,20.17
2018-11-10T18:21:36.115Z,20.10
2018-11-10T18:24:05.410Z,19.25
2018-11-10T18:26:35.596Z,20.72
2018-11-10T18:29:05.564Z,21.70
2018-11-10T18:31:34.769Z,21.35
2018-11-10T18:34:04.405Z,21.27
2018-11-10T18:36:33.686Z,21.05
2018-11-10T18:39:05.164Z,21.90
2018-11-10T18:41:37.120Z,19.90
2018-11-10T18:44:06.434Z,21.05
2018-11-10T18:46:35.573Z,21.25
2018-11-10T18:49:04.838Z,20.77
2018-11-10T18:51:33.944Z,21.77
2018-11-10T18:54:04.668Z,22.80
2018-11-10T18:56:39.192Z,19.82
2018-11-10T18:59:08.634Z,23.18
2018-11-10T19:01:38.542Z,23.10
2018-11-10T19:04:07.732Z,23.22
2018-11-10T19:06:36.941Z,22.73
2018-11-10T19:09:09.641Z,22.60
2018-11-10T19:11:38.920Z,22.17
2018-11-10T19:14:08.539Z,24.25
2018-11-10T19:16:37.833Z,23.50
2018-11-10T19:19:07.837Z,23.30
2018-11-10T19:21:37.687Z,22.73
2018-11-10T19:24:07.589Z,23.90
2018-11-10T19:26:38.021Z,23.07
2018-11-10T19:29:07.794Z,23.55
2018-11-10T19:31:37.375Z,24.80
2018-11-10T19:34:07.146Z,26.17
2018-11-10T19:36:37.101Z,24.75
2018-11-10T19:39:09.202Z,24.92
2018-11-10T19:41:39.002Z,24.57
2018-11-10T19:44:10.932Z,24.72
2018-11-10T19:46:41.160Z,24.47
2018-11-10T19:49:12.126Z,24.47
2018-11-10T19:51:41.854Z,25.57
2018-11-10T19:54:11.192Z,25.17
2018-11-10T19:56:40.414Z,25.48
2018-11-10T19:59:09.830Z,26.53
2018-11-10T20:01:39.188Z,26.87
2018-11-10T20:04:08.961Z,25.60
2018-11-10T20:06:38.809Z,26.77
2018-11-10T20:09:10.181Z,27.95
2018-11-10T20:11:39.820Z,29.02
2018-11-10T20:14:09.585Z,28.57
2018-11-10T20:16:39.124Z,28.60
2018-11-10T20:19:08.725Z,29.60
2018-11-10T20:21:38.324Z,27.70
2018-11-10T20:24:07.701Z,30.08
2018-11-10T20:26:37.309Z,28.92
2018-11-10T20:29:07.053Z,29.87
2018-11-10T20:31:36.627Z,29.67
2018-11-10T20:34:06.186Z,30.33
2018-11-10T20:36:36.172Z,28.87
2018-11-10T20:39:06.972Z,30.48
2018-11-10T20:41:36.954Z,30.40
2018-11-10T20:44:06.556Z,30.60
2018-11-10T20:46:35.806Z,30.20
2018-11-10T20:49:05.357Z,30.95
2018-11-10T20:51:34.453Z,31.12
2018-11-10T20:54:05.728Z,30.45
2018-11-10T20:56:34.873Z,30.25
2018-11-10T20:59:04.209Z,29.67
2018-11-10T21:01:33.368Z,30.15
2018-11-10T21:04:02.698Z,32.20
2018-11-10T21:06:31.974Z,30.23
2018-11-10T21:09:01.193Z,29.00
2018-11-10T21:11:30.286Z,26.97
2018-11-10T21:13:59.688Z,26.62
2018-11-10T21:16:28.992Z,27.10
2018-11-10T21:18:58.298Z,26.52
2018-11-10T21:21:30.830Z,26.90
2018-11-10T21:23:59.968Z,26.23
2018-11-10T21:26:29.028Z,26.42
2018-11-10T21:28:58.055Z,26.48
2018-11-10T21:31:27.559Z,26.95
2018-11-10T21:33:56.757Z,26.60
2018-11-10T21:36:26.106Z,24.40
2018-11-10T21:38:55.229Z,24.55
2018-11-10T21:41:24.557Z,24.47
2018-11-10T21:43:53.716Z,23.87
2018-11-10T21:46:22.950Z,24.77
2018-11-10T21:48:52.116Z,23.65
2018-11-10T21:51:21.233Z,25.37
2018-11-10T21:53:50.329Z,23.02
2018-11-10T21:56:19.405Z,25.00
2018-11-10T21:58:48.633Z,25.12
2018-11-10T22:01:17.697Z,25.43
2018-11-10T22:03:46.808Z,26.00
2018-11-10T22:06:15.933Z,26.97
2018-11-10T22:08:45.134Z,25.52
2018-11-10T22:11:14.277Z,25.65
2018-11-10T22:13:43.516Z,26.70
2018-11-10T22:16:12.468Z,26.07
2018-11-10T22:18:41.844Z,27.42
2018-11-10T22:21:12.088Z,26.23
2018-11-10T22:23:42.439Z,25.90
2018-11-10T22:26:11.616Z,25.43
2018-11-10T22:28:40.733Z,25.05
2018-11-10T22:31:09.917Z,25.40
2018-11-10T22:33:38.992Z,25.05
2018-11-10T22:36:08.038Z,26.00
2018-11-10T22:38:36.995Z,25.12
2018-11-10T22:41:06.568Z,24.75
2018-11-10T22:43:37.216Z,23.98
2018-11-10T22:46:06.240Z,24.07
2018-11-10T22:48:35.409Z,24.30
2018-11-10T22:51:04.528Z,23.27
2018-11-10T22:53:33.610Z,21.87
2018-11-10T22:56:02.622Z,22.32
2018-11-10T22:58:31.696Z,22.67
2018-11-10T23:01:10.737Z,23.38
2018-11-10T23:03:40.698Z,23.12
2018-11-10T23:06:10.721Z,23.27
2018-11-10T23:08:40.060Z,22.10
2018-11-10T23:11:09.172Z,22.52
2018-11-10T23:13:38.352Z,21.57
2018-11-10T23:16:09.008Z,20.95
2018-11-10T23:18:38.064Z,19.87
2018-11-10T23:21:07.289Z,22.50
2018-11-10T23:23:36.293Z,22.55
2018-11-10T23:26:05.552Z,20.82
2018-11-10T23:28:34.786Z,20.15
2018-11-10T23:31:03.949Z,21.62
2018-11-10T23:33:32.973Z,20.55
2018-11-10T23:36:02.037Z,20.75
2018-11-10T23:38:31.364Z,21.62
2018-11-10T23:41:00.340Z,18.87
2018-11-10T23:43:29.480Z,19.23
2018-11-10T23:45:58.636Z,18.37
2018-11-10T23:48:27.608Z,19.35
2018-11-10T23:50:56.812Z,19.00
2018-11-10T23:53:25.945Z,18.52
2018-11-10T23:55:55.013Z,17.70
2018-11-10T23:58:24.124Z,17.82
